sensor_id;sensor_type;location;lat;lon;timestamp;temperature;humidity
31263;DHT22;17892;52.080;9.006;2024-02-04T00:00:47;10.80;99.90
31263;DHT22;17892;52.080;9.006;2024-02-04T00:03:13;10.80;99.90
31263;DHT22;17892;52.080;9.006;2024-02-04T00:05:39;10.80;99.90
31263;DHT22;17892;52.080;9.006;2024-02-04T00:08:05;10.70;99.90
31263;DHT22;17892;52.080;9.006;2024-02-04T00:10:30;10.70;99.90
31263;DHT22;17892;52.080;9.006;2024-02-04T00:12:56;10.70;99.90
31263;DHT22;17892;52.080;9.006;2024-02-04T00:15:22;10.70;99.90
31263;DHT22;17892;52.080;9.006;2024-02-04T00:17:48;10.70;99.90
31263;DHT22;17892;52.080;9.006;2024-02-04T00:20:13;10.60;99.90
31263;DHT22;17892;52.080;9.006;2024-02-04T00:22:39;10.60;99.90
31263;DHT22;17892;52.080;9.006;2024-02-04T00:25:05;10.60;99.90
31263;DHT22;17892;52.080;9.006;2024-02-04T00:27:32;10.60;99.90
31263;DHT22;17892;52.080;9.006;2024-02-04T00:29:58;10.60;99.90
31263;DHT22;17892;52.080;9.006;2024-02-04T00:32:25;10.60;99.90
31263;DHT22;17892;52.080;9.006;2024-02-04T00:34:52;10.60;99.90
31263;DHT22;17892;52.080;9.006;2024-02-04T00:37:18;10.60;99.90
31263;DHT22;17892;52.080;9.006;2024-02-04T00:39:44;10.60;99.90
31263;DHT22;17892;52.080;9.006;2024-02-04T00:42:10;10.60;99.90
31263;DHT22;17892;52.080;9.006;2024-02-04T00:44:36;10.60;99.90
31263;DHT22;17892;52.080;9.006;2024-02-04T00:47:02;10.60;99.90
31263;DHT22;17892;52.080;9.006;2024-02-04T00:49:28;10.60;99.90
31263;DHT22;17892;52.080;9.006;2024-02-04T00:51:53;10.60;99.90
31263;DHT22;17892;52.080;9.006;2024-02-04T00:54:19;10.60;99.90
31263;DHT22;17892;52.080;9.006;2024-02-04T00:56:45;10.60;99.90
31263;DHT22;17892;52.080;9.006;2024-02-04T00:59:11;10.60;99.90
31263;DHT22;17892;52.080;9.006;2024-02-04T01:01:37;10.70;99.90
31263;DHT22;17892;52.080;9.006;2024-02-04T01:04:03;10.60;99.90
31263;DHT22;17892;52.080;9.006;2024-02-04T01:06:29;10.70;99.90
31263;DHT22;17892;52.080;9.006;2024-02-04T01:08:58;10.70;99.90
31263;DHT22;17892;52.080;9.006;2024-02-04T01:11:24;10.70;99.90
31263;DHT22;17892;52.080;9.006;2024-02-04T01:13:49;10.70;99.90
31263;DHT22;17892;52.080;9.006;2024-02-04T01:16:15;10.60;99.90
31263;DHT22;17892;52.080;9.006;2024-02-04T01:18:41;10.60;99.90
31263;DHT22;17892;52.080;9.006;2024-02-04T01:21:07;10.60;99.90
31263;DHT22;17892;52.080;9.006;2024-02-04T01:23:34;10.60;99.90
31263;DHT22;17892;52.080;9.006;2024-02-04T01:26:00;10.60;99.90
31263;DHT22;17892;52.080;9.006;2024-02-04T01:28:26;10.50;99.90
31263;DHT22;17892;52.080;9.006;2024-02-04T01:30:51;10.50;99.90
31263;DHT22;17892;52.080;9.006;2024-02-04T01:33:17;10.50;99.90
31263;DHT22;17892;52.080;9.006;2024-02-04T01:35:43;10.50;99.90
31263;DHT22;17892;52.080;9.006;2024-02-04T01:38:08;10.50;99.90
31263;DHT22;17892;52.080;9.006;2024-02-04T01:40:35;10.40;99.90
31263;DHT22;17892;52.080;9.006;2024-02-04T01:43:01;10.40;99.90
31263;DHT22;17892;52.080;9.006;2024-02-04T01:45:26;10.40;99.90
31263;DHT22;17892;52.080;9.006;2024-02-04T01:47:53;10.40;99.90
31263;DHT22;17892;52.080;9.006;2024-02-04T01:50:19;10.40;99.90
31263;DHT22;17892;52.080;9.006;2024-02-04T01:52:46;10.30;99.90
31263;DHT22;17892;52.080;9.006;2024-02-04T01:55:12;10.30;99.90
31263;DHT22;17892;52.080;9.006;2024-02-04T01:57:39;10.30;99.90
31263;DHT22;17892;52.080;9.006;2024-02-04T02:00:06;10.30;99.90
31263;DHT22;17892;52.080;9.006;2024-02-04T02:02:34;10.30;99.90
31263;DHT22;17892;52.080;9.006;2024-02-04T02:05:04;10.40;99.90
31263;DHT22;17892;52.080;9.006;2024-02-04T02:07:30;10.30;99.90
31263;DHT22;17892;52.080;9.006;2024-02-04T02:09:56;10.30;99.90
31263;DHT22;17892;52.080;9.006;2024-02-04T02:12:41;10.40;99.90
31263;DHT22;17892;52.080;9.006;2024-02-04T02:15:32;10.40;99.90
31263;DHT22;17892;52.080;9.006;2024-02-04T02:18:09;10.40;99.90
31263;DHT22;17892;52.080;9.006;2024-02-04T02:26:52;10.40;99.90
31263;DHT22;17892;52.080;9.006;2024-02-04T02:29:18;10.50;99.90
31263;DHT22;17892;52.080;9.006;2024-02-04T02:31:44;10.50;99.90
31263;DHT22;17892;52.080;9.006;2024-02-04T02:34:11;10.50;99.90
31263;DHT22;17892;52.080;9.006;2024-02-04T02:36:44;10.50;99.90
31263;DHT22;17892;52.080;9.006;2024-02-04T02:39:24;10.60;99.90
31263;DHT22;17892;52.080;9.006;2024-02-04T02:41:55;10.60;99.90
31263;DHT22;17892;52.080;9.006;2024-02-04T02:44:25;10.60;99.90
31263;DHT22;17892;52.080;9.006;2024-02-04T02:46:53;10.70;99.90
31263;DHT22;17892;52.080;9.006;2024-02-04T02:49:20;10.70;99.90
31263;DHT22;17892;52.080;9.006;2024-02-04T02:51:45;10.70;99.90
31263;DHT22;17892;52.080;9.006;2024-02-04T02:54:11;10.70;99.90
31263;DHT22;17892;52.080;9.006;2024-02-04T02:56:37;10.70;99.90
31263;DHT22;17892;52.080;9.006;2024-02-04T02:59:03;10.70;99.90
31263;DHT22;17892;52.080;9.006;2024-02-04T03:01:29;10.80;99.90
31263;DHT22;17892;52.080;9.006;2024-02-04T03:03:55;10.80;99.90
31263;DHT22;17892;52.080;9.006;2024-02-04T03:06:21;10.80;99.90
31263;DHT22;17892;52.080;9.006;2024-02-04T03:08:47;10.80;99.90
31263;DHT22;17892;52.080;9.006;2024-02-04T03:11:12;10.80;99.90
31263;DHT22;17892;52.080;9.006;2024-02-04T03:13:39;10.80;99.90
31263;DHT22;17892;52.080;9.006;2024-02-04T03:16:10;10.80;99.90
31263;DHT22;17892;52.080;9.006;2024-02-04T03:18:40;10.90;99.90
31263;DHT22;17892;52.080;9.006;2024-02-04T03:21:16;10.80;99.90
31263;DHT22;17892;52.080;9.006;2024-02-04T03:23:43;10.80;99.90
31263;DHT22;17892;52.080;9.006;2024-02-04T03:26:10;10.90;99.90
31263;DHT22;17892;52.080;9.006;2024-02-04T03:28:36;10.90;99.90
31263;DHT22;17892;52.080;9.006;2024-02-04T03:31:02;10.90;99.90
31263;DHT22;17892;52.080;9.006;2024-02-04T03:33:28;10.90;99.90
31263;DHT22;17892;52.080;9.006;2024-02-04T03:35:54;10.90;99.90
31263;DHT22;17892;52.080;9.006;2024-02-04T03:38:19;10.80;99.90
31263;DHT22;17892;52.080;9.006;2024-02-04T03:40:46;10.80;99.90
31263;DHT22;17892;52.080;9.006;2024-02-04T03:43:14;10.80;99.90
31263;DHT22;17892;52.080;9.006;2024-02-04T03:45:39;10.80;99.90
31263;DHT22;17892;52.080;9.006;2024-02-04T03:48:05;10.80;99.90
31263;DHT22;17892;52.080;9.006;2024-02-04T03:50:31;10.80;99.90
31263;DHT22;17892;52.080;9.006;2024-02-04T03:52:57;10.80;99.90
31263;DHT22;17892;52.080;9.006;2024-02-04T03:55:22;10.70;99.90
31263;DHT22;17892;52.080;9.006;2024-02-04T03:57:48;10.70;99.90
31263;DHT22;17892;52.080;9.006;2024-02-04T04:00:14;10.80;99.90
31263;DHT22;17892;52.080;9.006;2024-02-04T04:02:41;10.70;99.90
31263;DHT22;17892;52.080;9.006;2024-02-04T04:05:11;10.70;99.90
31263;DHT22;17892;52.080;9.006;2024-02-04T04:07:40;10.70;99.90
31263;DHT22;17892;52.080;9.006;2024-02-04T04:10:06;10.60;99.90
31263;DHT22;17892;52.080;9.006;2024-02-04T04:12:32;10.60;99.90
31263;DHT22;17892;52.080;9.006;2024-02-04T04:14:58;10.60;99.90
31263;DHT22;17892;52.080;9.006;2024-02-04T04:17:23;10.60;99.90
31263;DHT22;17892;52.080;9.006;2024-02-04T04:19:49;10.60;99.90
31263;DHT22;17892;52.080;9.006;2024-02-04T04:22:15;10.50;99.90
31263;DHT22;17892;52.080;9.006;2024-02-04T04:24:40;10.60;99.90
31263;DHT22;17892;52.080;9.006;2024-02-04T04:27:06;10.50;99.90
31263;DHT22;17892;52.080;9.006;2024-02-04T04:29:32;10.60;99.90
31263;DHT22;17892;52.080;9.006;2024-02-04T04:31:57;10.60;99.90
31263;DHT22;17892;52.080;9.006;2024-02-04T04:34:23;10.60;99.90
31263;DHT22;17892;52.080;9.006;2024-02-04T04:36:49;10.60;99.90
31263;DHT22;17892;52.080;9.006;2024-02-04T04:39:14;10.70;99.90
31263;DHT22;17892;52.080;9.006;2024-02-04T04:41:43;10.70;99.90
31263;DHT22;17892;52.080;9.006;2024-02-04T04:44:09;10.70;99.90
31263;DHT22;17892;52.080;9.006;2024-02-04T04:46:38;10.70;99.90
31263;DHT22;17892;52.080;9.006;2024-02-04T04:49:05;10.80;99.90
31263;DHT22;17892;52.080;9.006;2024-02-04T04:51:31;10.80;99.90
31263;DHT22;17892;52.080;9.006;2024-02-04T04:53:57;10.80;99.90
31263;DHT22;17892;52.080;9.006;2024-02-04T04:56:23;10.80;99.90
31263;DHT22;17892;52.080;9.006;2024-02-04T04:58:48;10.80;99.90
31263;DHT22;17892;52.080;9.006;2024-02-04T05:01:16;10.90;99.90
31263;DHT22;17892;52.080;9.006;2024-02-04T05:03:41;10.80;99.90
31263;DHT22;17892;52.080;9.006;2024-02-04T05:06:07;10.80;99.90
31263;DHT22;17892;52.080;9.006;2024-02-04T05:08:33;10.90;99.90
31263;DHT22;17892;52.080;9.006;2024-02-04T05:10:59;10.80;99.90
31263;DHT22;17892;52.080;9.006;2024-02-04T05:13:24;10.90;99.90
31263;DHT22;17892;52.080;9.006;2024-02-04T05:15:50;10.90;99.90
31263;DHT22;17892;52.080;9.006;2024-02-04T05:18:16;10.90;99.90
31263;DHT22;17892;52.080;9.006;2024-02-04T05:20:42;10.90;99.90
31263;DHT22;17892;52.080;9.006;2024-02-04T05:23:09;10.90;99.90
31263;DHT22;17892;52.080;9.006;2024-02-04T05:25:34;10.90;99.90
31263;DHT22;17892;52.080;9.006;2024-02-04T05:28:00;10.90;99.90
31263;DHT22;17892;52.080;9.006;2024-02-04T05:30:26;10.90;99.90
31263;DHT22;17892;52.080;9.006;2024-02-04T05:32:51;10.90;99.90
31263;DHT22;17892;52.080;9.006;2024-02-04T05:35:17;10.90;99.90
31263;DHT22;17892;52.080;9.006;2024-02-04T05:37:43;10.90;99.90
31263;DHT22;17892;52.080;9.006;2024-02-04T05:40:09;10.90;99.90
31263;DHT22;17892;52.080;9.006;2024-02-04T05:42:35;10.90;99.90
31263;DHT22;17892;52.080;9.006;2024-02-04T05:45:02;10.90;99.90
31263;DHT22;17892;52.080;9.006;2024-02-04T05:47:30;10.90;99.90
31263;DHT22;17892;52.080;9.006;2024-02-04T05:49:56;10.80;99.90
31263;DHT22;17892;52.080;9.006;2024-02-04T05:52:22;10.80;99.90
31263;DHT22;17892;52.080;9.006;2024-02-04T05:54:47;10.90;99.90
31263;DHT22;17892;52.080;9.006;2024-02-04T05:57:13;10.90;99.90
31263;DHT22;17892;52.080;9.006;2024-02-04T05:59:39;10.90;99.90
31263;DHT22;17892;52.080;9.006;2024-02-04T06:02:04;10.90;99.90
31263;DHT22;17892;52.080;9.006;2024-02-04T06:04:30;10.90;99.90
31263;DHT22;17892;52.080;9.006;2024-02-04T06:06:56;10.90;99.90
31263;DHT22;17892;52.080;9.006;2024-02-04T06:09:22;10.90;99.90
31263;DHT22;17892;52.080;9.006;2024-02-04T06:11:47;10.90;99.90
31263;DHT22;17892;52.080;9.006;2024-02-04T06:14:13;10.90;99.90
31263;DHT22;17892;52.080;9.006;2024-02-04T06:16:39;10.80;99.90
31263;DHT22;17892;52.080;9.006;2024-02-04T06:19:04;10.80;99.90
31263;DHT22;17892;52.080;9.006;2024-02-04T06:21:31;10.90;99.90
31263;DHT22;17892;52.080;9.006;2024-02-04T06:23:56;10.90;99.90
31263;DHT22;17892;52.080;9.006;2024-02-04T06:26:23;10.90;99.90
31263;DHT22;17892;52.080;9.006;2024-02-04T06:28:49;10.90;99.90
31263;DHT22;17892;52.080;9.006;2024-02-04T06:31:16;10.90;99.90
31263;DHT22;17892;52.080;9.006;2024-02-04T06:33:42;10.80;99.90
31263;DHT22;17892;52.080;9.006;2024-02-04T06:36:09;10.80;99.90
31263;DHT22;17892;52.080;9.006;2024-02-04T06:38:35;10.80;99.90
31263;DHT22;17892;52.080;9.006;2024-02-04T06:41:01;10.80;99.90
31263;DHT22;17892;52.080;9.006;2024-02-04T06:43:27;10.80;99.90
31263;DHT22;17892;52.080;9.006;2024-02-04T06:45:52;10.80;99.90
31263;DHT22;17892;52.080;9.006;2024-02-04T06:48:21;10.70;99.90
31263;DHT22;17892;52.080;9.006;2024-02-04T06:50:47;10.70;99.90
31263;DHT22;17892;52.080;9.006;2024-02-04T06:53:15;10.70;99.90
31263;DHT22;17892;52.080;9.006;2024-02-04T06:55:41;10.70;99.90
31263;DHT22;17892;52.080;9.006;2024-02-04T06:58:07;10.70;99.90
31263;DHT22;17892;52.080;9.006;2024-02-04T07:00:32;10.70;99.90
31263;DHT22;17892;52.080;9.006;2024-02-04T07:02:58;10.70;99.90
31263;DHT22;17892;52.080;9.006;2024-02-04T07:05:24;10.70;99.90
31263;DHT22;17892;52.080;9.006;2024-02-04T07:07:50;10.70;99.90
31263;DHT22;17892;52.080;9.006;2024-02-04T07:10:16;10.70;99.90
31263;DHT22;17892;52.080;9.006;2024-02-04T07:12:42;10.70;99.90
31263;DHT22;17892;52.080;9.006;2024-02-04T07:15:08;10.60;99.90
31263;DHT22;17892;52.080;9.006;2024-02-04T07:17:34;10.70;99.90
31263;DHT22;17892;52.080;9.006;2024-02-04T07:20:01;10.70;99.90
31263;DHT22;17892;52.080;9.006;2024-02-04T07:22:28;10.70;99.90
31263;DHT22;17892;52.080;9.006;2024-02-04T07:24:54;10.70;99.90
31263;DHT22;17892;52.080;9.006;2024-02-04T07:27:19;10.70;99.90
31263;DHT22;17892;52.080;9.006;2024-02-04T07:29:46;10.70;99.90
31263;DHT22;17892;52.080;9.006;2024-02-04T07:32:15;10.70;99.90
31263;DHT22;17892;52.080;9.006;2024-02-04T07:34:41;10.70;99.90
31263;DHT22;17892;52.080;9.006;2024-02-04T07:37:07;10.80;99.90
31263;DHT22;17892;52.080;9.006;2024-02-04T07:39:33;10.80;99.90
31263;DHT22;17892;52.080;9.006;2024-02-04T07:41:58;10.80;99.90
31263;DHT22;17892;52.080;9.006;2024-02-04T07:44:28;10.80;99.90
31263;DHT22;17892;52.080;9.006;2024-02-04T07:46:54;10.80;99.90
31263;DHT22;17892;52.080;9.006;2024-02-04T07:49:20;10.70;99.90
31263;DHT22;17892;52.080;9.006;2024-02-04T07:51:45;10.70;99.90
31263;DHT22;17892;52.080;9.006;2024-02-04T07:54:11;10.80;99.90
31263;DHT22;17892;52.080;9.006;2024-02-04T07:56:37;10.80;99.90
31263;DHT22;17892;52.080;9.006;2024-02-04T07:59:02;10.80;99.90
31263;DHT22;17892;52.080;9.006;2024-02-04T08:01:29;10.80;99.90
31263;DHT22;17892;52.080;9.006;2024-02-04T08:03:55;10.80;99.90
31263;DHT22;17892;52.080;9.006;2024-02-04T08:06:21;10.80;99.90
31263;DHT22;17892;52.080;9.006;2024-02-04T08:08:47;10.90;99.90
31263;DHT22;17892;52.080;9.006;2024-02-04T08:11:20;10.90;99.90
31263;DHT22;17892;52.080;9.006;2024-02-04T08:13:46;10.80;99.90
31263;DHT22;17892;52.080;9.006;2024-02-04T08:16:12;10.70;99.90
31263;DHT22;17892;52.080;9.006;2024-02-04T08:18:38;10.70;99.90
31263;DHT22;17892;52.080;9.006;2024-02-04T08:21:04;10.60;99.90
31263;DHT22;17892;52.080;9.006;2024-02-04T08:23:30;10.50;99.90
31263;DHT22;17892;52.080;9.006;2024-02-04T08:25:55;10.40;99.90
31263;DHT22;17892;52.080;9.006;2024-02-04T08:28:22;10.40;99.90
31263;DHT22;17892;52.080;9.006;2024-02-04T08:30:49;10.30;99.90
31263;DHT22;17892;52.080;9.006;2024-02-04T08:33:15;10.30;99.90
31263;DHT22;17892;52.080;9.006;2024-02-04T08:35:41;10.20;99.90
31263;DHT22;17892;52.080;9.006;2024-02-04T08:38:07;10.30;99.90
31263;DHT22;17892;52.080;9.006;2024-02-04T08:40:32;10.40;99.90
31263;DHT22;17892;52.080;9.006;2024-02-04T08:42:58;10.30;99.90
31263;DHT22;17892;52.080;9.006;2024-02-04T08:45:24;10.30;99.90
31263;DHT22;17892;52.080;9.006;2024-02-04T08:47:49;10.30;99.90
31263;DHT22;17892;52.080;9.006;2024-02-04T08:50:15;10.20;99.90
31263;DHT22;17892;52.080;9.006;2024-02-04T08:52:41;10.20;99.90
31263;DHT22;17892;52.080;9.006;2024-02-04T08:55:08;10.20;99.90
31263;DHT22;17892;52.080;9.006;2024-02-04T08:57:34;10.20;99.90
31263;DHT22;17892;52.080;9.006;2024-02-04T09:00:00;10.20;99.90
31263;DHT22;17892;52.080;9.006;2024-02-04T09:02:26;10.20;99.90
31263;DHT22;17892;52.080;9.006;2024-02-04T09:04:51;10.30;99.90
31263;DHT22;17892;52.080;9.006;2024-02-04T09:07:17;10.30;99.90
31263;DHT22;17892;52.080;9.006;2024-02-04T09:09:43;10.40;99.90
31263;DHT22;17892;52.080;9.006;2024-02-04T09:12:09;10.40;99.90
31263;DHT22;17892;52.080;9.006;2024-02-04T09:14:35;10.50;99.90
31263;DHT22;17892;52.080;9.006;2024-02-04T09:17:05;10.50;99.90
31263;DHT22;17892;52.080;9.006;2024-02-04T09:19:31;10.50;99.90
31263;DHT22;17892;52.080;9.006;2024-02-04T09:21:57;10.60;99.90
31263;DHT22;17892;52.080;9.006;2024-02-04T09:24:23;10.60;99.90
31263;DHT22;17892;52.080;9.006;2024-02-04T09:26:49;10.60;99.90
31263;DHT22;17892;52.080;9.006;2024-02-04T09:29:14;10.60;99.90
31263;DHT22;17892;52.080;9.006;2024-02-04T09:31:40;10.60;99.90
31263;DHT22;17892;52.080;9.006;2024-02-04T09:34:06;10.50;99.90
31263;DHT22;17892;52.080;9.006;2024-02-04T09:36:32;10.60;99.90
31263;DHT22;17892;52.080;9.006;2024-02-04T09:38:57;10.50;99.90
31263;DHT22;17892;52.080;9.006;2024-02-04T09:41:23;10.60;99.90
31263;DHT22;17892;52.080;9.006;2024-02-04T09:43:50;10.50;99.90
31263;DHT22;17892;52.080;9.006;2024-02-04T09:46:17;10.50;99.90
31263;DHT22;17892;52.080;9.006;2024-02-04T09:48:45;10.60;99.90
31263;DHT22;17892;52.080;9.006;2024-02-04T09:51:11;10.60;99.90
31263;DHT22;17892;52.080;9.006;2024-02-04T09:53:43;10.60;99.90
31263;DHT22;17892;52.080;9.006;2024-02-04T09:56:11;10.70;99.90
31263;DHT22;17892;52.080;9.006;2024-02-04T09:58:37;10.70;99.90
31263;DHT22;17892;52.080;9.006;2024-02-04T10:01:07;10.80;99.90
31263;DHT22;17892;52.080;9.006;2024-02-04T10:03:34;10.80;99.90
31263;DHT22;17892;52.080;9.006;2024-02-04T10:06:00;10.90;99.90
31263;DHT22;17892;52.080;9.006;2024-02-04T10:08:26;10.90;99.90
31263;DHT22;17892;52.080;9.006;2024-02-04T10:10:51;10.90;99.90
31263;DHT22;17892;52.080;9.006;2024-02-04T10:13:19;11.00;99.90
31263;DHT22;17892;52.080;9.006;2024-02-04T10:15:45;11.00;99.90
31263;DHT22;17892;52.080;9.006;2024-02-04T10:18:10;11.00;99.90
31263;DHT22;17892;52.080;9.006;2024-02-04T10:20:36;11.00;99.90
31263;DHT22;17892;52.080;9.006;2024-02-04T10:23:02;11.00;99.90
31263;DHT22;17892;52.080;9.006;2024-02-04T10:25:28;11.00;99.90
31263;DHT22;17892;52.080;9.006;2024-02-04T10:27:54;11.00;99.90
31263;DHT22;17892;52.080;9.006;2024-02-04T10:30:21;11.00;99.90
31263;DHT22;17892;52.080;9.006;2024-02-04T10:32:50;11.00;99.90
31263;DHT22;17892;52.080;9.006;2024-02-04T10:35:16;11.00;99.90
31263;DHT22;17892;52.080;9.006;2024-02-04T10:37:45;11.00;99.90
31263;DHT22;17892;52.080;9.006;2024-02-04T10:40:11;11.00;99.90
31263;DHT22;17892;52.080;9.006;2024-02-04T10:42:38;11.00;99.90
31263;DHT22;17892;52.080;9.006;2024-02-04T10:45:08;10.90;99.90
31263;DHT22;17892;52.080;9.006;2024-02-04T10:47:38;10.90;99.90
31263;DHT22;17892;52.080;9.006;2024-02-04T10:50:05;10.90;99.90
31263;DHT22;17892;52.080;9.006;2024-02-04T10:52:38;10.90;99.90
31263;DHT22;17892;52.080;9.006;2024-02-04T10:55:09;10.90;99.90
31263;DHT22;17892;52.080;9.006;2024-02-04T10:57:37;10.90;99.90
31263;DHT22;17892;52.080;9.006;2024-02-04T11:00:03;10.80;99.90
31263;DHT22;17892;52.080;9.006;2024-02-04T11:02:36;10.80;99.90
31263;DHT22;17892;52.080;9.006;2024-02-04T11:05:05;10.80;99.90
31263;DHT22;17892;52.080;9.006;2024-02-04T11:07:34;10.80;99.90
31263;DHT22;17892;52.080;9.006;2024-02-04T11:10:03;10.80;99.90
31263;DHT22;17892;52.080;9.006;2024-02-04T11:12:30;10.80;99.90
31263;DHT22;17892;52.080;9.006;2024-02-04T11:15:04;10.90;99.90
31263;DHT22;17892;52.080;9.006;2024-02-04T11:23:50;10.90;99.90
31263;DHT22;17892;52.080;9.006;2024-02-04T11:26:29;10.90;99.90
31263;DHT22;17892;52.080;9.006;2024-02-04T11:28:55;10.90;99.90
31263;DHT22;17892;52.080;9.006;2024-02-04T11:31:21;10.90;99.90
31263;DHT22;17892;52.080;9.006;2024-02-04T11:33:50;10.90;99.90
31263;DHT22;17892;52.080;9.006;2024-02-04T11:36:16;10.90;99.90
31263;DHT22;17892;52.080;9.006;2024-02-04T11:38:44;11.00;99.90
31263;DHT22;17892;52.080;9.006;2024-02-04T11:41:24;11.10;99.90
31263;DHT22;17892;52.080;9.006;2024-02-04T11:43:52;11.20;99.90
31263;DHT22;17892;52.080;9.006;2024-02-04T11:46:19;11.20;99.90
31263;DHT22;17892;52.080;9.006;2024-02-04T11:48:52;11.20;99.90
31263;DHT22;17892;52.080;9.006;2024-02-04T11:51:24;11.20;99.90
31263;DHT22;17892;52.080;9.006;2024-02-04T11:53:51;11.20;99.90
31263;DHT22;17892;52.080;9.006;2024-02-04T11:56:18;11.30;99.90
31263;DHT22;17892;52.080;9.006;2024-02-04T11:58:44;11.30;99.90
31263;DHT22;17892;52.080;9.006;2024-02-04T12:01:11;11.20;99.90
31263;DHT22;17892;52.080;9.006;2024-02-04T12:03:36;11.20;99.90
31263;DHT22;17892;52.080;9.006;2024-02-04T12:06:03;11.20;99.90
31263;DHT22;17892;52.080;9.006;2024-02-04T12:08:31;11.20;99.90
31263;DHT22;17892;52.080;9.006;2024-02-04T12:10:58;11.20;99.90
31263;DHT22;17892;52.080;9.006;2024-02-04T12:13:25;11.20;99.90
31263;DHT22;17892;52.080;9.006;2024-02-04T12:15:50;11.20;99.90
31263;DHT22;17892;52.080;9.006;2024-02-04T12:18:16;11.20;99.90
31263;DHT22;17892;52.080;9.006;2024-02-04T12:20:46;11.30;99.90
31263;DHT22;17892;52.080;9.006;2024-02-04T12:23:14;11.30;99.90
31263;DHT22;17892;52.080;9.006;2024-02-04T12:25:40;11.30;99.90
31263;DHT22;17892;52.080;9.006;2024-02-04T12:28:05;11.20;99.90
31263;DHT22;17892;52.080;9.006;2024-02-04T12:30:32;11.20;99.90
31263;DHT22;17892;52.080;9.006;2024-02-04T12:33:03;11.20;99.90
31263;DHT22;17892;52.080;9.006;2024-02-04T12:35:30;11.20;99.90
31263;DHT22;17892;52.080;9.006;2024-02-04T12:37:57;11.10;99.90
31263;DHT22;17892;52.080;9.006;2024-02-04T12:40:28;11.10;99.90
31263;DHT22;17892;52.080;9.006;2024-02-04T12:43:01;11.10;99.90
31263;DHT22;17892;52.080;9.006;2024-02-04T12:45:29;11.10;99.90
31263;DHT22;17892;52.080;9.006;2024-02-04T12:47:56;11.10;99.90
31263;DHT22;17892;52.080;9.006;2024-02-04T12:50:23;11.20;99.90
31263;DHT22;17892;52.080;9.006;2024-02-04T12:53:01;11.10;99.90
31263;DHT22;17892;52.080;9.006;2024-02-04T12:55:35;11.20;99.90
31263;DHT22;17892;52.080;9.006;2024-02-04T12:58:09;11.20;99.90
31263;DHT22;17892;52.080;9.006;2024-02-04T13:00:42;11.30;99.90
31263;DHT22;17892;52.080;9.006;2024-02-04T13:03:08;11.20;99.90
31263;DHT22;17892;52.080;9.006;2024-02-04T13:05:35;11.20;99.90
31263;DHT22;17892;52.080;9.006;2024-02-04T13:08:02;11.20;99.90
31263;DHT22;17892;52.080;9.006;2024-02-04T13:10:31;11.20;99.90
31263;DHT22;17892;52.080;9.006;2024-02-04T13:13:09;11.10;99.90
31263;DHT22;17892;52.080;9.006;2024-02-04T13:15:37;11.10;99.90
31263;DHT22;17892;52.080;9.006;2024-02-04T13:18:04;11.10;99.90
31263;DHT22;17892;52.080;9.006;2024-02-04T13:20:30;11.00;99.90
31263;DHT22;17892;52.080;9.006;2024-02-04T13:22:56;10.90;99.90
31263;DHT22;17892;52.080;9.006;2024-02-04T13:25:23;10.90;99.90
31263;DHT22;17892;52.080;9.006;2024-02-04T13:27:49;10.80;99.90
31263;DHT22;17892;52.080;9.006;2024-02-04T13:30:18;10.80;99.90
31263;DHT22;17892;52.080;9.006;2024-02-04T13:32:44;10.80;99.90
31263;DHT22;17892;52.080;9.006;2024-02-04T13:35:10;10.80;99.90
31263;DHT22;17892;52.080;9.006;2024-02-04T13:37:39;10.80;99.90
31263;DHT22;17892;52.080;9.006;2024-02-04T13:40:06;10.70;99.90
31263;DHT22;17892;52.080;9.006;2024-02-04T13:42:34;10.80;99.90
31263;DHT22;17892;52.080;9.006;2024-02-04T13:45:00;10.80;99.90
31263;DHT22;17892;52.080;9.006;2024-02-04T13:47:27;10.80;99.90
31263;DHT22;17892;52.080;9.006;2024-02-04T13:49:53;10.80;99.90
31263;DHT22;17892;52.080;9.006;2024-02-04T13:52:19;10.80;99.90
31263;DHT22;17892;52.080;9.006;2024-02-04T13:54:45;10.80;99.90
31263;DHT22;17892;52.080;9.006;2024-02-04T13:57:10;10.80;99.90
31263;DHT22;17892;52.080;9.006;2024-02-04T13:59:36;10.90;99.90
31263;DHT22;17892;52.080;9.006;2024-02-04T14:02:02;10.90;99.90
31263;DHT22;17892;52.080;9.006;2024-02-04T14:04:29;11.00;99.90
31263;DHT22;17892;52.080;9.006;2024-02-04T14:06:55;10.90;99.90
31263;DHT22;17892;52.080;9.006;2024-02-04T14:09:21;11.00;99.90
31263;DHT22;17892;52.080;9.006;2024-02-04T14:11:47;11.00;99.90
31263;DHT22;17892;52.080;9.006;2024-02-04T14:14:13;11.00;99.90
31263;DHT22;17892;52.080;9.006;2024-02-04T14:16:39;11.00;99.90
31263;DHT22;17892;52.080;9.006;2024-02-04T14:19:05;10.90;99.90
31263;DHT22;17892;52.080;9.006;2024-02-04T14:21:31;10.90;99.90
31263;DHT22;17892;52.080;9.006;2024-02-04T14:23:56;10.90;99.90
31263;DHT22;17892;52.080;9.006;2024-02-04T14:26:22;10.90;99.90
31263;DHT22;17892;52.080;9.006;2024-02-04T14:28:48;10.90;99.90
31263;DHT22;17892;52.080;9.006;2024-02-04T14:31:14;10.90;99.90
31263;DHT22;17892;52.080;9.006;2024-02-04T14:33:40;10.90;99.90
31263;DHT22;17892;52.080;9.006;2024-02-04T14:36:07;10.90;99.90
31263;DHT22;17892;52.080;9.006;2024-02-04T14:38:33;10.90;99.90
31263;DHT22;17892;52.080;9.006;2024-02-04T14:40:59;10.90;99.90
31263;DHT22;17892;52.080;9.006;2024-02-04T14:43:25;10.90;99.90
31263;DHT22;17892;52.080;9.006;2024-02-04T14:45:51;10.90;99.90
31263;DHT22;17892;52.080;9.006;2024-02-04T14:48:17;10.90;99.90
31263;DHT22;17892;52.080;9.006;2024-02-04T14:50:43;10.90;99.90
31263;DHT22;17892;52.080;9.006;2024-02-04T14:53:09;10.90;99.90
31263;DHT22;17892;52.080;9.006;2024-02-04T14:55:35;10.90;99.90
31263;DHT22;17892;52.080;9.006;2024-02-04T14:58:00;10.90;99.90
31263;DHT22;17892;52.080;9.006;2024-02-04T15:00:26;10.90;99.90
31263;DHT22;17892;52.080;9.006;2024-02-04T15:02:56;10.90;99.90
31263;DHT22;17892;52.080;9.006;2024-02-04T15:05:22;10.80;99.90
31263;DHT22;17892;52.080;9.006;2024-02-04T15:07:49;10.80;99.90
31263;DHT22;17892;52.080;9.006;2024-02-04T15:10:16;10.80;99.90
31263;DHT22;17892;52.080;9.006;2024-02-04T15:12:43;10.70;99.90
31263;DHT22;17892;52.080;9.006;2024-02-04T15:15:09;10.70;99.90
31263;DHT22;17892;52.080;9.006;2024-02-04T15:17:36;10.70;99.90
31263;DHT22;17892;52.080;9.006;2024-02-04T15:20:02;10.60;99.90
31263;DHT22;17892;52.080;9.006;2024-02-04T15:22:29;10.60;99.90
31263;DHT22;17892;52.080;9.006;2024-02-04T15:24:56;10.60;99.90
31263;DHT22;17892;52.080;9.006;2024-02-04T15:27:24;10.60;99.90
31263;DHT22;17892;52.080;9.006;2024-02-04T15:29:50;10.60;99.90
31263;DHT22;17892;52.080;9.006;2024-02-04T15:32:17;10.50;99.90
31263;DHT22;17892;52.080;9.006;2024-02-04T15:34:43;10.60;99.90
31263;DHT22;17892;52.080;9.006;2024-02-04T15:37:10;10.50;99.90
31263;DHT22;17892;52.080;9.006;2024-02-04T15:39:35;10.50;99.90